Salt Lake City International Airport
KSLC : now visible

Airfield :











YOU CAN JOIN US ON...

 
LOGIN :

Register | Disclaimer

   EN    FR    IT 

 









Legend :    VFR   Marginal VFR   IFR   Intensive IFR   Very Intensive IFR
Visi :
Ceiling :
>= 8 km
>= 3000ft
5 to 8 km
1000 to 3000 ft
1500m to 5 km
500 to 1000 ft
800 to 1500m
200 to 500 ft
< 800m
< 200 ft
Symbols :   Thunderstorms  Fog  Heavy snow  Heavy precipitations  Wind > 20 kt






- Airport Elevation : 4227 ft
- IATA code : SLC


KSLC - Salt Lake City International

CURRENT METAR :
  • 290154Z 00000KT 10SM CLR 07/M01 A3026 RMK AO2 SLP251 T00671011 VISNO NW RNWY $

EXPIRED METARs :
  • 290054Z 28006KT 10SM CLR 09/M02 A3023 RMK AO2 SLP237 T00891022 VISNO NW RNWY $
  • 282354Z 31007KT 10SM CLR 11/M03 A3023 RMK AO2 SLP233 T01111033 10122 20083 58006 VISNO NW RNWY $

TAF KSLC
Valid from the 29 at 00:00 until the 30 at 06:00 UTC


282320Z 2900/3006 33008KT P6SM SKC
FM290200 01005KT P6SM SKC
FM290500 15007KT P6SM SKC
FM291900 32008KT P6SM SKC
FM300400 15006KT P6SM SKC
KZLC FIR / North America



MET'MAP, your aeronautical weather chart ! - Copyright ORBIFLY December 2007 - Disclaimer

ORBIFLY MET'MAP TEAM :

Programming & Development : Alexandra Zaïnal
Concept & original design : Baudouin d'Aumeries
Assistance for programming : Marc-Olivier Méhu
Technical & hardware support : Manuel Goepfert

Contact : metmap@orbifly.com




SOURCES & CREDITS :

   NOAA       Earth
Advisory